Time;durP1;ratioP1;P1;durP2;ratioP2;P2;SDS_P1;SDS_P2;PMS_P1;PMS_P2;Temp;Humidity;BMP_temperature;BMP_pressure;BME280_temperature;BME280_humidity;BME280_pressure;Samples;Min_cycle;Max_cycle;Signal;HPM_P1;HPM_P2
2023/10/07 00:00:47;;;;;;;11.10;5.70;;;7.70;42.50;;;;;;5013594;28;20544;-72
2023/10/07 00:03:20;;;;;;;9.93;4.30;;;7.70;42.10;;;;;;5013556;28;20932;-72
2023/10/07 00:05:47;;;;;;;8.63;4.80;;;7.70;41.40;;;;;;5013216;28;20922;-69
2023/10/07 00:08:16;;;;;;;7.70;4.80;;;7.60;42.00;;;;;;5013594;28;20418;-70
2023/10/07 00:10:46;;;;;;;8.67;4.60;;;7.50;43.40;;;;;;5012192;28;20431;-69
2023/10/07 00:13:13;;;;;;;14.60;5.23;;;7.50;44.00;;;;;;5013394;28;20836;-70
2023/10/07 00:15:43;;;;;;;8.77;5.10;;;7.50;43.20;;;;;;5013520;28;20411;-70
2023/10/07 00:18:13;;;;;;;10.93;5.20;;;7.50;43.30;;;;;;5013366;28;20501;-70
2023/10/07 00:20:45;;;;;;;11.13;5.57;;;7.50;42.20;;;;;;5013225;28;20438;-70
2023/10/07 00:23:15;;;;;;;7.13;3.93;;;7.50;42.20;;;;;;5013312;28;20809;-70
2023/10/07 00:25:41;;;;;;;10.90;5.10;;;7.50;41.40;;;;;;5013061;28;20426;-70
2023/10/07 00:28:24;;;;;;;5.60;3.67;;;7.50;41.50;;;;;;5013104;28;20417;-69
2023/10/07 00:30:49;;;;;;;7.13;4.73;;;7.50;41.60;;;;;;5013161;28;20176;-69
2023/10/07 00:33:20;;;;;;;6.70;4.80;;;7.50;41.50;;;;;;5012934;28;20478;-69
2023/10/07 00:35:53;;;;;;;7.10;4.63;;;7.50;41.70;;;;;;5012897;28;20259;-69
2023/10/07 00:38:37;;;;;;;7.00;4.03;;;7.50;41.40;;;;;;5011518;28;20946;-69
2023/10/07 00:41:03;;;;;;;9.47;5.00;;;7.50;40.20;;;;;;5012885;28;20908;-70
2023/10/07 00:43:31;;;;;;;7.70;4.37;;;7.50;40.20;;;;;;5012855;28;20419;-69
2023/10/07 00:46:20;;;;;;;7.73;4.50;;;7.50;39.70;;;;;;5012514;28;20471;-69
2023/10/07 00:48:56;;;;;;;8.60;4.40;;;7.50;40.20;;;;;;5012801;28;20501;-70
2023/10/07 00:51:33;;;;;;;7.10;4.60;;;7.40;40.10;;;;;;5012760;28;20406;-67
2023/10/07 00:56:54;;;;;;;5.83;3.80;;;7.30;41.00;;;;;;5012609;28;20565;-69
2023/10/07 00:59:19;;;;;;;7.30;4.63;;;7.20;40.30;;;;;;5012577;28;20408;-70
2023/10/07 01:01:49;;;;;;;6.40;3.70;;;7.20;41.70;;;;;;5012540;28;20434;-69
2023/10/07 01:04:16;;;;;;;8.07;4.80;;;7.20;40.00;;;;;;5012393;28;20179;-69
2023/10/07 01:06:45;;;;;;;12.50;5.40;;;7.20;40.40;;;;;;5012140;28;20432;-69
2023/10/07 01:09:14;;;;;;;8.50;4.10;;;7.20;41.10;;;;;;5012413;28;20450;-70
2023/10/07 01:11:46;;;;;;;7.00;4.00;;;7.20;41.80;;;;;;5012291;28;20426;-69
2023/10/07 01:14:12;;;;;;;9.93;4.37;;;7.20;39.90;;;;;;5012188;28;20450;-69
2023/10/07 01:16:41;;;;;;;7.37;4.03;;;7.20;39.90;;;;;;5012020;28;20457;-69
2023/10/07 01:21:59;;;;;;;8.57;4.70;;;7.10;39.80;;;;;;5012357;28;20921;-69
2023/10/07 01:24:46;;;;;;;7.43;4.40;;;7.00;39.80;;;;;;5012111;28;20415;-69
2023/10/07 01:29:48;;;;;;;6.93;3.90;;;6.90;39.70;;;;;;5012122;28;20477;-69
2023/10/07 01:32:16;;;;;;;11.67;5.53;;;6.80;40.90;;;;;;5012405;28;20506;-70
2023/10/07 01:34:47;;;;;;;8.33;4.40;;;6.80;41.30;;;;;;5011948;28;20410;-70
2023/10/07 01:37:16;;;;;;;8.10;4.33;;;6.80;41.50;;;;;;5012158;28;20430;-70
2023/10/07 01:39:44;;;;;;;7.70;3.43;;;6.80;40.50;;;;;;5012362;28;20432;-70
2023/10/07 01:42:14;;;;;;;11.97;4.73;;;6.70;40.40;;;;;;5012726;28;20806;-70
2023/10/07 01:44:41;;;;;;;6.40;4.43;;;6.80;39.60;;;;;;5012053;28;20407;-70
2023/10/07 01:47:23;;;;;;;7.00;4.80;;;6.70;40.30;;;;;;5012241;28;20984;-70
2023/10/07 01:49:56;;;;;;;8.63;4.37;;;6.70;41.50;;;;;;5011900;28;20458;-69
2023/10/07 01:52:26;;;;;;;6.93;4.47;;;6.70;42.80;;;;;;5011648;28;20403;-69
2023/10/07 01:54:55;;;;;;;10.50;4.33;;;6.70;43.30;;;;;;5011640;28;20544;-70
2023/10/07 01:57:21;;;;;;;7.00;4.10;;;6.60;42.00;;;;;;5011643;28;20953;-69
2023/10/07 01:59:47;;;;;;;11.77;4.33;;;6.60;42.60;;;;;;5011772;28;20481;-69
2023/10/07 02:02:14;;;;;;;7.80;4.67;;;6.50;43.20;;;;;;5011775;28;20442;-69
2023/10/07 02:04:40;;;;;;;6.50;3.57;;;6.50;42.60;;;;;;5010314;28;20647;-69
2023/10/07 02:07:08;;;;;;;7.00;4.57;;;6.50;42.40;;;;;;5011779;28;20432;-69
2023/10/07 02:09:40;;;;;;;9.00;4.23;;;6.50;42.10;;;;;;5011729;28;20191;-69
2023/10/07 02:12:09;;;;;;;11.20;5.23;;;6.50;42.30;;;;;;5011638;28;20418;-70
2023/10/07 02:14:37;;;;;;;8.13;4.47;;;6.50;41.90;;;;;;5011827;28;20413;-70
2023/10/07 02:17:03;;;;;;;10.30;6.00;;;6.50;41.80;;;;;;5056971;23;20580;-68
2023/10/07 02:19:29;;;;;;;8.03;4.60;;;6.40;41.90;;;;;;5056822;28;20864;-68
2023/10/07 02:22:07;;;;;;;8.67;5.40;;;6.40;42.40;;;;;;5055769;28;20408;-69
2023/10/07 02:24:34;;;;;;;11.80;5.27;;;6.40;42.40;;;;;;5054995;28;20401;-69
2023/10/07 02:27:17;;;;;;;9.67;4.57;;;6.30;42.10;;;;;;5055075;28;20434;-69
2023/10/07 02:29:43;;;;;;;4.30;3.10;;;6.30;43.30;;;;;;5053634;28;20421;-68
2023/10/07 02:32:14;;;;;;;8.20;4.60;;;6.30;41.60;;;;;;5054929;28;20405;-69
2023/10/07 02:34:54;;;;;;;14.17;5.83;;;6.30;41.80;;;;;;5055740;28;20419;-68
2023/10/07 02:37:29;;;;;;;8.03;4.30;;;6.30;41.80;;;;;;5055687;28;20796;-68
2023/10/07 02:39:56;;;;;;;6.97;3.77;;;6.20;41.80;;;;;;5055049;28;20432;-68
2023/10/07 02:42:24;;;;;;;10.53;5.10;;;6.20;42.60;;;;;;5055803;28;20417;-68
2023/10/07 02:45:20;;;;;;;8.30;4.37;;;6.20;42.40;;;;;;5058092;28;20416;-69
2023/10/07 02:47:54;;;;;;;4.50;2.87;;;6.10;41.80;;;;;;5053756;28;20440;-70
2023/10/07 02:50:20;;;;;;;5.23;3.30;;;6.00;44.20;;;;;;5058132;28;20416;-70
2023/10/07 02:52:46;;;;;;;7.63;3.80;;;5.90;45.20;;;;;;5055389;28;20452;-69
2023/10/07 02:57:45;;;;;;;7.43;3.73;;;5.90;46.50;;;;;;5056293;28;20540;-70
2023/10/07 03:00:18;;;;;;;5.97;3.10;;;6.00;45.90;;;;;;5054578;28;20923;-68
2023/10/07 03:02:50;;;;;;;6.87;4.57;;;6.00;45.00;;;;;;5055717;28;20428;-69
2023/10/07 03:05:29;;;;;;;7.77;4.30;;;5.90;44.00;;;;;;5055286;28;20853;-68
2023/10/07 03:08:06;;;;;;;5.53;3.70;;;6.00;45.10;;;;;;5056702;28;20523;-67
2023/10/07 03:10:44;;;;;;;6.97;4.30;;;6.00;44.20;;;;;;5056428;28;20420;-68
2023/10/07 03:13:10;;;;;;;7.50;4.17;;;6.10;42.40;;;;;;5056295;28;20512;-68
2023/10/07 03:18:04;;;;;;;7.97;4.10;;;6.10;42.80;;;;;;5056263;28;20982;-68
2023/10/07 03:20:31;;;;;;;6.13;3.30;;;6.10;42.50;;;;;;5056025;28;20417;-69
2023/10/07 03:23:11;;;;;;;8.40;5.00;;;6.10;43.20;;;;;;5056108;28;20416;-68
2023/10/07 03:28:24;;;;;;;7.13;4.10;;;6.10;44.00;;;;;;5056458;28;20415;-68
2023/10/07 03:30:55;;;;;;;6.50;4.63;;;6.00;44.10;;;;;;5054930;28;20425;-68
2023/10/07 03:33:23;;;;;;;10.93;4.10;;;6.00;44.30;;;;;;5056048;28;21046;-69
2023/10/07 03:38:25;;;;;;;5.43;3.37;;;;;;;;;;5055813;28;20811;-68
2023/10/07 03:40:54;;;;;;;13.33;4.70;;;;;;;;;;5055863;28;20926;-68
2023/10/07 03:43:20;;;;;;;9.07;3.90;;;;;;;;;;5054621;28;20428;-68
2023/10/07 03:45:46;;;;;;;7.40;4.20;;;;;;;;;;5055663;28;20818;-68
2023/10/07 03:48:24;;;;;;;8.43;4.90;;;5.90;60.60;;;;;;5055377;28;20424;-68
2023/10/07 03:50:59;;;;;;;5.83;4.30;;;5.90;61.10;;;;;;5055454;28;20420;-70
2023/10/07 03:53:44;;;;;;;7.53;4.47;;;5.90;60.20;;;;;;5055223;28;20467;-68
2023/10/07 03:56:10;;;;;;;8.60;3.80;;;5.90;58.60;;;;;;5055194;28;20448;-68
2023/10/07 03:58:37;;;;;;;10.20;4.40;;;5.90;58.60;;;;;;5055003;28;20420;-68
2023/10/07 04:01:11;;;;;;;9.93;5.00;;;5.90;59.30;;;;;;5055191;28;20422;-69
2023/10/07 04:03:38;;;;;;;8.93;5.10;;;6.00;57.90;;;;;;5055398;28;20836;-68
2023/10/07 04:06:04;;;;;;;8.67;4.67;;;5.90;57.90;;;;;;5055090;28;20419;-68
2023/10/07 04:08:32;;;;;;;8.10;3.93;;;5.90;58.70;;;;;;5055312;28;20429;-69
2023/10/07 04:10:58;;;;;;;8.33;3.63;;;5.90;58.00;;;;;;5055035;28;20417;-69
2023/10/07 04:13:24;;;;;;;6.40;3.83;;;6.00;57.40;;;;;;5052066;28;20556;-69
2023/10/07 04:15:53;;;;;;;7.10;3.70;;;6.00;57.20;;;;;;5054458;28;20508;-69
2023/10/07 04:18:34;;;;;;;4.93;3.77;;;6.00;56.00;;;;;;5055329;28;20424;-69
2023/10/07 04:21:02;;;;;;;5.77;3.23;;;6.10;55.70;;;;;;5055006;28;20439;-69
2023/10/07 04:23:27;;;;;;;5.33;3.57;;;6.00;55.30;;;;;;5055745;28;20417;-68
2023/10/07 04:26:04;;;;;;;6.23;4.03;;;6.00;56.20;;;;;;5055039;28;20417;-69
2023/10/07 04:28:29;;;;;;;7.40;4.20;;;5.90;55.30;;;;;;5054173;28;20181;-68
2023/10/07 04:30:55;;;;;;;9.63;4.20;;;5.90;56.60;;;;;;5055923;28;20443;-68
2023/10/07 04:33:32;;;;;;;11.10;4.43;;;5.90;57.90;;;;;;5054986;28;20303;-69
2023/10/07 04:36:03;;;;;;;11.73;4.27;;;5.90;57.40;;;;;;5054512;28;20261;-68
2023/10/07 04:41:30;;;;;;;6.87;4.13;;;6.00;55.20;;;;;;5055211;28;20826;-68
2023/10/07 04:43:59;;;;;;;6.83;3.80;;;6.00;55.20;;;;;;5053913;28;20433;-68
2023/10/07 04:46:42;;;;;;;6.97;4.07;;;6.00;54.50;;;;;;5054641;28;20490;-69
2023/10/07 04:49:14;;;;;;;5.60;4.63;;;6.00;55.20;;;;;;5053726;28;20435;-68
2023/10/07 04:54:20;;;;;;;10.17;4.60;;;6.00;55.20;;;;;;5054159;28;20524;-67
2023/10/07 04:56:53;;;;;;;7.97;4.80;;;6.00;55.60;;;;;;5053030;28;20501;-67
2023/10/07 04:59:18;;;;;;;7.10;3.90;;;6.00;55.00;;;;;;5053775;28;20410;-67
2023/10/07 05:01:48;;;;;;;8.40;3.93;;;6.00;54.50;;;;;;5053978;28;20498;-67
2023/10/07 05:04:15;;;;;;;5.20;3.50;;;6.00;55.00;;;;;;5054054;28;20546;-68
2023/10/07 05:06:43;;;;;;;9.50;4.93;;;6.00;54.20;;;;;;5054210;28;20444;-70
2023/10/07 05:09:09;;;;;;;6.80;3.97;;;6.00;53.90;;;;;;5054125;28;20420;-67
2023/10/07 05:11:43;;;;;;;9.17;4.40;;;5.90;55.20;;;;;;5053714;28;20427;-67
2023/10/07 05:14:10;;;;;;;9.30;4.40;;;5.90;55.00;;;;;;5056387;28;20502;-67
2023/10/07 05:16:36;;;;;;;6.67;3.43;;;5.90;55.70;;;;;;5055589;28;20459;-69
2023/10/07 05:19:03;;;;;;;8.37;3.40;;;5.90;55.80;;;;;;5054768;28;20781;-67
2023/10/07 05:21:31;;;;;;;7.63;4.40;;;5.90;55.60;;;;;;5053339;28;20975;-67
2023/10/07 05:24:01;;;;;;;8.73;4.10;;;5.90;55.50;;;;;;5053175;28;20452;-67
2023/10/07 05:26:27;;;;;;;10.20;4.33;;;5.80;55.00;;;;;;5052154;28;20518;-68
2023/10/07 05:28:53;;;;;;;8.20;4.37;;;5.80;55.80;;;;;;5052420;28;20521;-67
2023/10/07 05:31:20;;;;;;;8.80;3.93;;;5.80;55.40;;;;;;5053733;28;20191;-67
2023/10/07 05:33:47;;;;;;;8.57;4.40;;;5.90;55.40;;;;;;5052937;28;20206;-67
2023/10/07 05:36:13;;;;;;;11.80;3.47;;;5.90;55.40;;;;;;5053472;28;20432;-68
2023/10/07 05:38:45;;;;;;;8.27;3.60;;;5.90;55.00;;;;;;5052974;28;20482;-68
2023/10/07 05:41:14;;;;;;;6.67;4.03;;;6.00;55.10;;;;;;5053461;28;20653;-67
2023/10/07 05:43:44;;;;;;;6.43;4.47;;;6.00;54.80;;;;;;5052911;28;20462;-68
2023/10/07 05:46:13;;;;;;;4.30;3.27;;;6.00;55.00;;;;;;5052810;28;20942;-67
2023/10/07 05:48:40;;;;;;;6.33;4.30;;;6.10;53.90;;;;;;5051194;28;20429;-69
2023/10/07 05:51:09;;;;;;;7.47;4.20;;;6.10;53.00;;;;;;5052310;28;20413;-68
2023/10/07 05:53:42;;;;;;;7.50;4.30;;;6.00;55.10;;;;;;5052609;28;20456;-67
2023/10/07 05:56:09;;;;;;;6.80;3.67;;;6.00;56.40;;;;;;5052761;28;20457;-68
2023/10/07 05:58:36;;;;;;;6.03;3.30;;;6.00;56.20;;;;;;5053485;28;20404;-68
2023/10/07 06:01:03;;;;;;;5.43;4.03;;;6.10;55.10;;;;;;5053116;28;20413;-67
2023/10/07 06:03:30;;;;;;;8.50;3.83;;;;;;;;;;5052940;28;20413;-68
2023/10/07 06:05:59;;;;;;;5.67;3.93;;;;;;;;;;5052654;28;20425;-67
2023/10/07 06:08:26;;;;;;;7.70;3.80;;;;;;;;;;5053338;28;20466;-68
2023/10/07 06:10:59;;;;;;;5.20;3.10;;;;;;;;;;5051806;28;20494;-68
2023/10/07 06:13:26;;;;;;;6.80;4.20;;;;;;;;;;5053414;28;20496;-68
2023/10/07 06:15:52;;;;;;;6.03;3.47;;;;;;;;;;5053379;28;20417;-68
2023/10/07 06:18:18;;;;;;;7.00;3.43;;;;;;;;;;5051890;28;20992;-68
2023/10/07 06:20:47;;;;;;;9.50;4.63;;;;;;;;;;5052539;28;20401;-68
2023/10/07 06:23:14;;;;;;;6.17;3.83;;;;;;;;;;5053718;28;20417;-69
2023/10/07 06:25:42;;;;;;;9.40;4.77;;;6.60;54.90;;;;;;5054416;28;20753;-69
2023/10/07 06:28:10;;;;;;;6.77;4.60;;;6.80;54.60;;;;;;5056235;28;20775;-69
2023/10/07 06:30:42;;;;;;;8.20;4.60;;;;;;;;;;5054180;28;20420;-69
2023/10/07 06:33:12;;;;;;;7.60;4.90;;;;;;;;;;5053379;28;20488;-68
2023/10/07 06:35:38;;;;;;;7.90;4.83;;;;;;;;;;5054519;28;20393;-71
2023/10/07 06:38:05;;;;;;;7.60;4.50;;;;;;;;;;5057600;28;20428;-68
2023/10/07 06:40:35;;;;;;;6.93;4.33;;;;;;;;;;5058982;28;20405;-68
2023/10/07 06:43:01;;;;;;;7.53;3.90;;;;;;;;;;5059066;28;20413;-68
2023/10/07 06:45:38;;;;;;;8.00;5.60;;;;;;;;;;5058636;28;20472;-68
2023/10/07 06:48:09;;;;;;;7.47;5.07;;;;;;;;;;5057853;28;20490;-68
2023/10/07 06:50:35;;;;;;;9.23;4.80;;;;;;;;;;5057616;28;20407;-66
2023/10/07 06:53:01;;;;;;;6.90;4.47;;;;;;;;;;5057459;28;20535;-71
2023/10/07 06:55:28;;;;;;;7.90;4.50;;;;;;;;;;5059506;28;20424;-70
2023/10/07 06:57:56;;;;;;;8.93;4.67;;;;;;;;;;5057265;28;20423;-70
2023/10/07 07:00:37;;;;;;;9.50;4.50;;;;;;;;;;5059206;28;20460;-71
2023/10/07 07:03:09;;;;;;;7.40;4.20;;;;;;;;;;5059085;28;20855;-71
2023/10/07 07:05:35;;;;;;;10.07;5.07;;;;;;;;;;5057539;28;20412;-71
2023/10/07 07:08:03;;;;;;;7.40;4.80;;;;;;;;;;5057061;28;20421;-69
2023/10/07 07:10:31;;;;;;;10.83;4.80;;;;;;;;;;5057246;28;20476;-68
2023/10/07 07:13:05;;;;;;;7.87;4.30;;;8.90;36.40;;;;;;5057043;28;20494;-68
2023/10/07 07:15:37;;;;;;;7.67;4.87;;;9.00;37.00;;;;;;5057427;28;20410;-68
2023/10/07 07:21:13;;;;;;;8.47;5.67;;;;;;;;;;5053365;28;20506;-69
2023/10/07 07:23:49;;;;;;;8.67;5.10;;;;;;;;;;5052562;28;21024;-68
2023/10/07 07:26:20;;;;;;;6.40;4.77;;;;;;;;;;5052873;28;20497;-68
2023/10/07 07:28:47;;;;;;;9.50;4.27;;;;;;;;;;5052716;28;20421;-69
2023/10/07 07:31:19;;;;;;;7.60;4.90;;;;;;;;;;5051829;28;20486;-68
2023/10/07 07:33:48;;;;;;;9.30;5.20;;;;;;;;;;5052638;28;20464;-68
2023/10/07 07:39:01;;;;;;;9.93;5.67;;;;;;;;;;5053331;28;20459;-69
2023/10/07 07:41:34;;;;;;;10.87;5.60;;;;;;;;;;5052469;28;20409;-68
2023/10/07 07:44:01;;;;;;;8.00;4.87;;;;;;;;;;5053089;28;21395;-68
2023/10/07 07:46:30;;;;;;;9.10;5.13;;;;;;;;;;5051857;28;20465;-67
2023/10/07 07:49:06;;;;;;;13.63;5.17;;;;;;;;;;5050083;28;20468;-69
2023/10/07 07:51:41;;;;;;;6.07;4.33;;;;;;;;;;5068137;28;20428;-67
2023/10/07 07:54:07;;;;;;;5.87;4.10;;;;;;;;;;5052598;28;20497;-68
2023/10/07 07:56:37;;;;;;;4.80;3.40;;;;;;;;;;5052822;28;20486;-67
2023/10/07 07:59:17;;;;;;;6.00;4.17;;;;;;;;;;5054608;28;20507;-69
2023/10/07 08:01:44;;;;;;;5.83;4.10;;;;;;;;;;5055114;28;20433;-68
2023/10/07 08:04:17;;;;;;;8.20;4.43;;;;;;;;;;5054689;28;20449;-68
2023/10/07 08:06:43;;;;;;;6.77;4.17;;;;;;;;;;5048551;28;20458;-70
2023/10/07 08:09:11;;;;;;;6.43;5.03;;;;;;;;;;5050368;28;20429;-70
2023/10/07 08:11:37;;;;;;;8.57;6.10;;;;;;;;;;5054606;28;20975;-69
2023/10/07 08:14:10;;;;;;;11.10;5.50;;;;;;;;;;5067914;28;20454;-69
2023/10/07 08:16:52;;;;;;;8.67;5.53;;;;;;;;;;5066845;22;20486;-69
2023/10/07 08:19:21;;;;;;;8.60;5.10;;;;;;;;;;5034229;28;20457;-70
2023/10/07 08:21:52;;;;;;;6.67;4.97;;;;;;;;;;5028222;28;20507;-69
2023/10/07 08:24:19;;;;;;;6.87;5.63;;;;;;;;;;5013897;28;20755;-70
2023/10/07 08:26:48;;;;;;;6.33;4.83;;;;;;;;;;5046369;28;20438;-71
2023/10/07 08:29:31;;;;;;;10.20;4.93;;;;;;;;;;5026567;28;20429;-69
2023/10/07 08:31:58;;;;;;;6.30;3.87;;;;;;;;;;5013664;28;20415;-70
2023/10/07 08:34:32;;;;;;;7.80;5.67;;;;;;;;;;5013474;28;20470;-69
2023/10/07 08:37:02;;;;;;;7.93;5.40;;;;;;;;;;5030323;28;20982;-69
2023/10/07 08:39:28;;;;;;;6.70;5.33;;;;;;;;;;5033333;28;20771;-70
2023/10/07 08:41:58;;;;;;;8.83;5.20;;;;;;;;;;5048458;28;20821;-70
2023/10/07 08:44:31;;;;;;;8.47;5.47;;;;;;;;;;5033160;28;20797;-70
2023/10/07 08:47:04;;;;;;;11.40;5.87;;;;;;;;;;5033175;28;20429;-70
2023/10/07 08:49:33;;;;;;;6.37;4.07;;;;;;;;;;5033260;28;20402;-71
2023/10/07 08:51:59;;;;;;;6.60;5.20;;;;;;;;;;5033098;28;20410;-68
2023/10/07 08:54:26;;;;;;;6.70;5.30;;;;;;;;;;5032500;28;20814;-71
2023/10/07 08:56:57;;;;;;;6.30;5.40;;;;;;;;;;5032454;28;20434;-69
2023/10/07 08:59:24;;;;;;;7.97;5.93;;;;;;;;;;5032789;28;20418;-68
2023/10/07 09:02:00;;;;;;;7.87;6.07;;;;;;;;;;5031496;28;20504;-69
2023/10/07 09:04:29;;;;;;;8.60;6.37;;;;;;;;;;5033156;28;20943;-69
2023/10/07 09:06:55;;;;;;;6.80;6.13;;;;;;;;;;5029512;28;20793;-69
2023/10/07 09:09:32;;;;;;;8.97;6.27;;;;;;;;;;5030422;28;20777;-69
2023/10/07 09:12:09;;;;;;;10.00;6.53;;;;;;;;;;5032062;28;20425;-70
2023/10/07 09:14:35;;;;;;;7.23;5.97;;;;;;;;;;5021928;28;20461;-69
2023/10/07 09:17:04;;;;;;;6.30;5.50;;;;;;;;;;5032475;28;20470;-70
2023/10/07 09:19:30;;;;;;;7.83;5.87;;;;;;;;;;5032482;28;20413;-69
2023/10/07 09:21:57;;;;;;;9.77;6.57;;;;;;;;;;5031568;28;20433;-69
2023/10/07 09:24:26;;;;;;;7.47;5.17;;;;;;;;;;5032806;28;20407;-69
2023/10/07 09:26:56;;;;;;;6.27;5.47;;;;;;;;;;5032561;28;20436;-71
2023/10/07 09:29:32;;;;;;;8.30;4.40;;;;;;;;;;5032608;28;20417;-70
2023/10/07 09:32:16;;;;;;;7.70;4.77;;;;;;;;;;5029277;28;20560;-69
2023/10/07 09:34:42;;;;;;;6.97;4.90;;;;;;;;;;5031785;28;20548;-70
2023/10/07 09:37:20;;;;;;;7.77;5.63;;;;;;;;;;5030761;28;20456;-69
2023/10/07 09:39:53;;;;;;;7.13;4.83;;;;;;;;;;5032432;28;20456;-69
2023/10/07 09:42:26;;;;;;;7.70;4.70;;;;;;;;;;5032249;28;20410;-69
2023/10/07 09:45:16;;;;;;;7.70;6.20;;;;;;;;;;5031743;28;20779;-69
2023/10/07 09:47:44;;;;;;;5.27;4.77;;;;;;;;;;5047223;28;20811;-69
2023/10/07 09:50:19;;;;;;;6.00;5.30;;;;;;;;;;5047266;28;20426;-70
2023/10/07 09:52:48;;;;;;;6.00;5.40;;;;;;;;;;5047042;28;20457;-69
2023/10/07 09:55:25;;;;;;;4.70;3.97;;;;;;;;;;5031074;28;20437;-70
2023/10/07 09:58:36;;;;;;;8.53;4.50;;;;;;;;;;5031544;28;20933;-69
2023/10/07 10:01:28;;;;;;;5.93;4.60;;;;;;;;;;4989035;28;20450;-70
2023/10/07 10:04:17;;;;;;;7.67;4.57;;;;;;;;;;4987948;28;20431;-70
2023/10/07 10:06:57;;;;;;;5.30;4.70;;;;;;;;;;5023840;28;20999;-70
2023/10/07 10:09:24;;;;;;;5.30;4.80;;;;;;;;;;5031830;28;20417;-70
2023/10/07 10:15:07;;;;;;;6.60;5.03;;;;;;;;;;5018570;28;20461;-70
2023/10/07 10:17:39;;;;;;;5.03;4.53;;;;;;;;;;5053200;28;20552;-70
2023/10/07 10:20:12;;;;;;;5.73;4.87;;;;;;;;;;5038083;28;20480;-70
2023/10/07 10:22:38;;;;;;;5.20;4.50;;;;;;;;;;5038520;28;20892;-69
2023/10/07 10:25:25;;;;;;;7.43;6.00;;;;;;;;;;5038301;28;20502;-71
2023/10/07 10:27:58;;;;;;;5.77;5.30;;;;;;;;;;5037314;28;20432;-70
2023/10/07 10:30:24;;;;;;;5.07;4.63;;;;;;;;;;5036229;28;20940;-70
2023/10/07 10:32:57;;;;;;;4.47;4.10;;;;;;;;;;5037503;28;20461;-70
2023/10/07 10:35:24;;;;;;;5.97;4.63;;;;;;;;;;5053211;28;20414;-70
2023/10/07 10:37:59;;;;;;;6.40;5.13;;;;;;;;;;5038069;28;20437;-71
2023/10/07 10:40:31;;;;;;;5.80;5.20;;;;;;;;;;5038238;28;20405;-69
2023/10/07 10:42:58;;;;;;;5.07;4.67;;;;;;;;;;5038237;28;20477;-69
2023/10/07 10:45:26;;;;;;;5.67;5.10;;;;;;;;;;5038042;28;20414;-70
2023/10/07 10:47:53;;;;;;;5.40;4.90;;;;;;;;;;5053376;28;21035;-70
2023/10/07 10:50:22;;;;;;;5.00;4.50;;;;;;;;;;5053560;28;20409;-70
2023/10/07 10:52:48;;;;;;;5.60;4.90;;;;;;;;;;5038000;28;20492;-70
2023/10/07 10:55:17;;;;;;;5.13;4.63;;;;;;;;;;5037620;28;20531;-71
2023/10/07 10:57:44;;;;;;;6.17;5.30;;;;;;;;;;5037751;28;20445;-70
2023/10/07 11:00:20;;;;;;;4.90;4.47;;;;;;;;;;5053391;28;20429;-70
2023/10/07 11:02:47;;;;;;;5.90;5.43;;;;;;;;;;5038028;28;20405;-71
2023/10/07 11:05:13;;;;;;;6.07;5.60;;;;;;;;;;5037800;28;20903;-71
2023/10/07 11:07:39;;;;;;;5.43;4.97;;;;;;;;;;5053264;28;20860;-71
2023/10/07 11:10:09;;;;;;;4.60;4.30;;;;;;;;;;5037755;28;20418;-70
2023/10/07 11:12:36;;;;;;;6.20;4.57;;;;;;;;;;5037989;28;20406;-70
2023/10/07 11:15:13;;;;;;;4.90;4.50;;;;;;;;;;5037600;28;20768;-70
2023/10/07 11:17:42;;;;;;;5.77;4.50;;;;;;;;;;5052930;28;20465;-71
2023/10/07 11:20:15;;;;;;;5.87;5.17;;;;;;;;;;5037777;28;20422;-70
2023/10/07 11:22:43;;;;;;;5.30;4.90;;;;;;;;;;5037196;28;20414;-70
2023/10/07 11:25:14;;;;;;;4.80;4.20;;;;;;;;;;5050089;28;20422;-70
2023/10/07 11:27:43;;;;;;;6.87;4.60;;;;;;;;;;5034741;28;20504;-70
2023/10/07 11:30:14;;;;;;;5.70;5.20;;;;;;;;;;5034188;28;20513;-69
2023/10/07 11:32:43;;;;;;;5.00;4.60;;;;;;;;;;5052471;28;20418;-70
2023/10/07 11:35:27;;;;;;;4.80;4.50;;;;;;;;;;5053553;28;20496;-70
2023/10/07 11:37:57;;;;;;;6.03;5.43;;;;;;;;;;5037813;28;20457;-70
2023/10/07 11:40:26;;;;;;;5.33;4.93;;;;;;;;;;5039106;28;20410;-70
2023/10/07 11:42:53;;;;;;;5.40;4.90;;;;;;;;;;5053566;28;20434;-70
2023/10/07 11:45:22;;;;;;;5.33;4.93;;;;;;;;;;5038824;28;20406;-71
2023/10/07 11:47:55;;;;;;;5.37;4.87;;;;;;;;;;5038954;28;20433;-70
2023/10/07 11:50:21;;;;;;;5.30;4.37;;;;;;;;;;5053753;28;20425;-69
2023/10/07 11:52:47;;;;;;;4.87;4.37;;;;;;;;;;5038814;28;20446;-69
2023/10/07 11:55:16;;;;;;;5.17;4.77;;;;;;;;;;5037420;28;20413;-70
2023/10/07 11:57:42;;;;;;;4.87;4.40;;;;;;;;;;5037076;28;20936;-70
2023/10/07 12:00:22;;;;;;;5.27;4.70;;;;;;;;;;5037697;28;20425;-70
2023/10/07 12:02:50;;;;;;;5.57;4.30;;;;;;;;;;5038505;28;20496;-70
2023/10/07 12:05:17;;;;;;;5.37;4.87;;;;;;;;;;5053768;28;20961;-70
2023/10/07 12:07:47;;;;;;;4.80;4.40;;;;;;;;;;5054166;28;20442;-69
2023/10/07 12:10:15;;;;;;;5.30;4.90;;;;;;;;;;5039230;28;20414;-70
2023/10/07 12:12:45;;;;;;;7.13;5.37;;;;;;;;;;5038701;28;20418;-71
2023/10/07 12:15:15;;;;;;;6.00;5.17;;;;;;;;;;5038791;28;20414;-71
2023/10/07 12:17:42;;;;;;;5.17;4.67;;;;;;;;;;5052865;28;20507;-71
2023/10/07 12:20:12;;;;;;;5.63;5.03;;;;;;;;;;5038935;28;20425;-71
2023/10/07 12:22:39;;;;;;;6.10;5.37;;;;;;;;;;5053574;28;20410;-71
2023/10/07 12:25:06;;;;;;;4.90;4.40;;;;;;;;;;5038657;28;20414;-70
2023/10/07 12:27:32;;;;;;;5.00;4.60;;;;;;;;;;5053752;28;20433;-70
2023/10/07 12:29:58;;;;;;;4.80;4.40;;;;;;;;;;5054009;28;20421;-69
2023/10/07 12:32:24;;;;;;;5.20;4.70;;;;;;;;;;5038716;28;20840;-71
2023/10/07 12:34:50;;;;;;;5.50;5.00;;;;;;;;;;5037572;28;20941;-71
2023/10/07 12:37:16;;;;;;;5.20;4.50;;;;;;;;;;5038485;28;20883;-70
2023/10/07 12:39:44;;;;;;;5.53;5.03;;;;;;;;;;5053183;28;20410;-73
2023/10/07 12:42:12;;;;;;;5.80;5.17;;;;;;;;;;5038257;28;20892;-71
2023/10/07 12:44:39;;;;;;;5.40;4.87;;;;;;;;;;5053822;28;20414;-70
2023/10/07 12:47:08;;;;;;;5.80;5.00;;;;;;;;;;5038262;28;20441;-69
2023/10/07 12:49:38;;;;;;;5.03;4.53;;;;;;;;;;5038539;28;20457;-69
2023/10/07 12:52:07;;;;;;;5.00;4.60;;;;;;;;;;5053974;28;20989;-69
2023/10/07 12:54:34;;;;;;;5.60;5.10;;;;;;;;;;5051818;28;21007;-69
2023/10/07 12:57:03;;;;;;;5.30;4.80;;;;;;;;;;5052925;28;20513;-69
2023/10/07 12:59:35;;;;;;;6.00;5.50;;;;;;;;;;5038497;28;20417;-71
2023/10/07 13:02:03;;;;;;;6.60;5.27;;;;;;;;;;5037283;28;20490;-71
2023/10/07 13:04:34;;;;;;;6.27;5.77;;;;;;;;;;5032600;28;20421;-70
2023/10/07 13:07:03;;;;;;;6.97;5.23;;;;;;;;;;5047963;28;20438;-70
2023/10/07 13:09:30;;;;;;;4.90;4.50;;;;;;;;;;5032739;28;20512;-70
2023/10/07 13:11:56;;;;;;;5.20;4.70;;;;;;;;;;5032667;28;20413;-70
2023/10/07 13:14:26;;;;;;;5.33;4.30;;;;;;;;;;5032699;28;20457;-70
2023/10/07 13:16:56;;;;;;;4.27;3.97;;;;;;;;;;5048234;28;20461;-71
2023/10/07 13:19:26;;;;;;;6.10;4.80;;;;;;;;;;5033354;28;20398;-73
2023/10/07 13:21:52;;;;;;;4.87;4.47;;;;;;;;;;5033126;28;20901;-71
2023/10/07 13:24:18;;;;;;;5.40;5.00;;;;;;;;;;5032573;28;20420;-71
2023/10/07 13:26:44;;;;;;;7.27;5.30;;;;;;;;;;5032510;28;20795;-71
2023/10/07 13:29:10;;;;;;;5.00;4.37;;;;;;;;;;5033051;28;20414;-71
2023/10/07 13:31:38;;;;;;;5.00;4.37;;;;;;;;;;5032266;28;20415;-71
2023/10/07 13:34:06;;;;;;;5.10;4.70;;;;;;;;;;5047675;28;20465;-71
2023/10/07 13:36:32;;;;;;;4.67;4.27;;;;;;;;;;5031817;28;20441;-70
2023/10/07 13:39:01;;;;;;;9.70;5.20;;;;;;;;;;5032009;28;20789;-70
2023/10/07 13:41:27;;;;;;;5.60;4.80;;;;;;;;;;5047458;28;20785;-72
2023/10/07 13:43:53;;;;;;;6.70;4.13;;;;;;;;;;5032249;28;20421;-70
2023/10/07 13:46:19;;;;;;;6.17;5.57;;;;;;;;;;5046386;28;20985;-70
2023/10/07 13:48:45;;;;;;;5.57;5.07;;;;;;;;;;5032290;28;20506;-70
2023/10/07 13:51:12;;;;;;;9.90;5.40;;;;;;;;;;5032331;28;20418;-71
2023/10/07 13:54:22;;;;;;;5.70;5.20;;;;;;;;;;5031984;28;20491;-71
2023/10/07 13:56:47;;;;;;;5.50;5.10;;;;;;;;;;5031612;28;20442;-70
2023/10/07 13:59:13;;;;;;;5.90;5.30;;;;;;;;;;5047468;28;20456;-71
2023/10/07 14:01:42;;;;;;;5.07;4.67;;;;;;;;;;5031881;28;20801;-71
2023/10/07 14:04:08;;;;;;;8.43;4.97;;;;;;;;;;5047229;28;20418;-72
2023/10/07 14:06:36;;;;;;;6.10;5.60;;;;;;;;;;5031569;28;20805;-71
2023/10/07 14:09:03;;;;;;;9.60;5.30;;;;;;;;;;5047048;28;20456;-70
2023/10/07 14:11:31;;;;;;;5.07;4.60;;;;;;;;;;5031717;28;20421;-71
2023/10/07 14:14:00;;;;;;;5.50;5.00;;;;;;;;;;5031708;28;20469;-71
2023/10/07 14:16:26;;;;;;;5.80;5.30;;;;;;;;;;5031762;28;20429;-71
2023/10/07 14:18:53;;;;;;;5.37;4.97;;;;;;;;;;5047305;28;20415;-70
2023/10/07 14:21:20;;;;;;;6.97;5.10;;;;;;;;;;5031723;28;20460;-69
2023/10/07 14:23:46;;;;;;;6.77;5.33;;;;;;;;;;5031529;28;20410;-69
2023/10/07 14:26:12;;;;;;;5.37;4.87;;;;;;;;;;5031384;28;20441;-70
2023/10/07 14:28:42;;;;;;;5.57;4.80;;;;;;;;;;5031681;28;20921;-72
2023/10/07 14:31:13;;;;;;;4.80;4.40;;;;;;;;;;5046755;28;20422;-72
2023/10/07 14:33:39;;;;;;;5.80;5.30;;;;;;;;;;5031498;28;20457;-71
2023/10/07 14:36:11;;;;;;;4.97;4.57;;;;;;;;;;5031216;28;20415;-71
2023/10/07 14:38:43;;;;;;;7.50;5.70;;;;;;;;;;5031455;28;20402;-71
2023/10/07 14:41:11;;;;;;;5.53;5.03;;;;;;;;;;5031433;28;20406;-71
2023/10/07 14:43:37;;;;;;;6.20;5.57;;;;;;;;;;5031383;28;20416;-72
2023/10/07 14:46:11;;;;;;;5.93;5.43;;;;;;;;;;5031302;28;20410;-73